sensor_id;sensor_type;location;lat;lon;timestamp;pressure;altitude;pressure_sealevel;temperature;humidity
22181;BME280;11256;50.830;12.834;2022-10-13T00:02:32;98158.25;;;12.55;54.07
22181;BME280;11256;50.830;12.834;2022-10-13T00:07:32;98152.84;;;12.50;54.08
22181;BME280;11256;50.830;12.834;2022-10-13T00:12:34;98145.84;;;12.39;53.84
22181;BME280;11256;50.830;12.834;2022-10-13T00:17:37;98151.03;;;12.35;54.47
22181;BME280;11256;50.830;12.834;2022-10-13T00:22:38;98161.91;;;12.35;54.50
22181;BME280;11256;50.830;12.834;2022-10-13T00:27:38;98156.72;;;12.39;54.35
22181;BME280;11256;50.830;12.834;2022-10-13T00:32:39;98156.72;;;12.39;54.30
22181;BME280;11256;50.830;12.834;2022-10-13T00:37:39;98151.81;;;12.36;54.15
22181;BME280;11256;50.830;12.834;2022-10-13T00:42:40;98162.44;;;12.32;54.32
22181;BME280;11256;50.830;12.834;2022-10-13T00:47:44;98149.16;;;12.31;54.39
22181;BME280;11256;50.830;12.834;2022-10-13T00:52:46;98156.19;;;12.37;54.67
22181;BME280;11256;50.830;12.834;2022-10-13T00:57:50;98154.00;;;12.34;54.79
22181;BME280;11256;50.830;12.834;2022-10-13T01:03:02;98158.91;;;12.37;55.09
22181;BME280;11256;50.830;12.834;2022-10-13T01:08:03;98144.78;;;12.30;55.59
22181;BME280;11256;50.830;12.834;2022-10-13T01:13:16;98133.16;;;12.24;55.89
22181;BME280;11256;50.830;12.834;2022-10-13T01:18:45;98117.72;;;12.15;56.06
22181;BME280;11256;50.830;12.834;2022-10-13T01:45:01;98125.34;;;12.03;57.27
22181;BME280;11256;50.830;12.834;2022-10-13T01:50:03;98124.84;;;12.01;57.04
22181;BME280;11256;50.830;12.834;2022-10-13T01:55:10;98125.94;;;12.00;57.21
22181;BME280;11256;50.830;12.834;2022-10-13T02:00:14;98128.09;;;11.98;57.72
22181;BME280;11256;50.830;12.834;2022-10-13T02:15:57;98098.38;;;11.68;57.58
22181;BME280;11256;50.830;12.834;2022-10-13T02:21:06;98129.28;;;11.82;57.78
22181;BME280;11256;50.830;12.834;2022-10-13T02:26:06;98145.00;;;11.85;57.86
22181;BME280;11256;50.830;12.834;2022-10-13T02:31:07;98095.94;;;11.61;57.90
22181;BME280;11256;50.830;12.834;2022-10-13T02:36:11;98085.63;;;11.68;57.94
22181;BME280;11256;50.830;12.834;2022-10-13T02:41:12;98088.03;;;11.70;58.11
22181;BME280;11256;50.830;12.834;2022-10-13T02:46:15;98081.56;;;11.66;58.48
22181;BME280;11256;50.830;12.834;2022-10-13T02:51:20;98061.47;;;11.57;58.44
22181;BME280;11256;50.830;12.834;2022-10-13T02:56:22;98081.56;;;11.66;58.72
22181;BME280;11256;50.830;12.834;2022-10-13T03:01:28;98056.03;;;11.57;58.77
22181;BME280;11256;50.830;12.834;2022-10-13T03:06:50;98064.72;;;11.59;59.04
22181;BME280;11256;50.830;12.834;2022-10-13T03:11:58;98063.06;;;11.58;59.17
22181;BME280;11256;50.830;12.834;2022-10-13T03:17:03;98076.13;;;11.66;59.07
22181;BME280;11256;50.830;12.834;2022-10-13T03:22:06;98056.31;;;11.50;59.31
22181;BME280;11256;50.830;12.834;2022-10-13T03:27:24;98070.69;;;11.56;59.47
22181;BME280;11256;50.830;12.834;2022-10-13T03:32:34;98057.94;;;11.51;59.40
22181;BME280;11256;50.830;12.834;2022-10-13T03:37:38;98068.78;;;11.56;59.70
22181;BME280;11256;50.830;12.834;2022-10-13T03:42:41;98058.78;;;11.47;59.42
22181;BME280;11256;50.830;12.834;2022-10-13T03:47:42;98058.50;;;11.48;59.84
22181;BME280;11256;50.830;12.834;2022-10-13T03:52:43;98061.47;;;11.47;60.00
22181;BME280;11256;50.830;12.834;2022-10-13T03:57:44;98050.91;;;11.40;60.06
22181;BME280;11256;50.830;12.834;2022-10-13T04:02:48;98068.78;;;11.51;60.17
22181;BME280;11256;50.830;12.834;2022-10-13T04:07:54;98060.97;;;11.40;60.42
22181;BME280;11256;50.830;12.834;2022-10-13T04:13:01;98049.63;;;11.33;60.98
22181;BME280;11256;50.830;12.834;2022-10-13T04:18:01;98048.53;;;11.29;61.21
22181;BME280;11256;50.830;12.834;2022-10-13T04:23:03;98055.03;;;11.33;61.12
22181;BME280;11256;50.830;12.834;2022-10-13T04:28:11;98041.50;;;11.23;61.14
22181;BME280;11256;50.830;12.834;2022-10-13T04:33:11;98037.44;;;11.20;61.67
22181;BME280;11256;50.830;12.834;2022-10-13T04:38:12;98054.75;;;11.29;61.45
22181;BME280;11256;50.830;12.834;2022-10-13T04:43:12;98054.50;;;11.26;61.68
22181;BME280;11256;50.830;12.834;2022-10-13T04:48:14;98048.53;;;11.24;61.67
22181;BME280;11256;50.830;12.834;2022-10-13T04:53:15;98052.34;;;11.23;61.35
22181;BME280;11256;50.830;12.834;2022-10-13T04:58:15;98039.88;;;11.17;61.41
22181;BME280;11256;50.830;12.834;2022-10-13T05:03:15;98029.84;;;11.07;60.85
22181;BME280;11256;50.830;12.834;2022-10-13T05:08:16;98038.81;;;11.08;61.43
22181;BME280;11256;50.830;12.834;2022-10-13T05:13:16;98032.88;;;11.06;61.27
22181;BME280;11256;50.830;12.834;2022-10-13T05:18:18;98035.84;;;11.04;61.38
22181;BME280;11256;50.830;12.834;2022-10-13T05:23:19;98036.38;;;11.01;61.69
22181;BME280;11256;50.830;12.834;2022-10-13T05:28:19;98026.63;;;10.95;62.36
22181;BME280;11256;50.830;12.834;2022-10-13T05:33:19;98030.97;;;10.91;62.50
22181;BME280;11256;50.830;12.834;2022-10-13T05:38:20;98026.38;;;10.87;62.22
22181;BME280;11256;50.830;12.834;2022-10-13T05:43:20;98026.38;;;10.87;62.62
22181;BME280;11256;50.830;12.834;2022-10-13T05:48:20;98029.09;;;10.87;61.82
22181;BME280;11256;50.830;12.834;2022-10-13T05:53:22;98036.69;;;10.85;62.49
22181;BME280;11256;50.830;12.834;2022-10-13T05:58:24;98037.78;;;10.79;62.82
22181;BME280;11256;50.830;12.834;2022-10-13T06:03:25;98028.56;;;10.80;62.92
22181;BME280;11256;50.830;12.834;2022-10-13T06:08:27;98032.38;;;10.79;63.15
22181;BME280;11256;50.830;12.834;2022-10-13T06:13:28;98033.44;;;10.78;62.96
22181;BME280;11256;50.830;12.834;2022-10-13T06:18:29;98042.13;;;10.90;62.84
22181;BME280;11256;50.830;12.834;2022-10-13T06:23:29;98056.72;;;10.94;63.36
22181;BME280;11256;50.830;12.834;2022-10-13T06:28:30;98047.50;;;11.00;63.80
22181;BME280;11256;50.830;12.834;2022-10-13T06:33:30;98047.47;;;11.15;64.18
22181;BME280;11256;50.830;12.834;2022-10-13T06:38:31;98059.63;;;11.42;64.42
22181;BME280;11256;50.830;12.834;2022-10-13T06:43:32;98063.59;;;11.70;64.10
22181;BME280;11256;50.830;12.834;2022-10-13T06:48:36;98067.53;;;11.97;63.93
22181;BME280;11256;50.830;12.834;2022-10-13T06:53:37;98073.19;;;12.11;63.33
22181;BME280;11256;50.830;12.834;2022-10-13T06:58:37;98073.72;;;12.08;63.04
22181;BME280;11256;50.830;12.834;2022-10-13T07:03:37;98077.00;;;12.10;63.01
22181;BME280;11256;50.830;12.834;2022-10-13T07:08:38;98075.91;;;12.06;62.96
22181;BME280;11256;50.830;12.834;2022-10-13T07:13:39;98075.09;;;12.05;62.59
22181;BME280;11256;50.830;12.834;2022-10-13T07:18:41;98068.84;;;12.10;62.81
22181;BME280;11256;50.830;12.834;2022-10-13T07:23:42;98057.41;;;12.13;63.03
22181;BME280;11256;50.830;12.834;2022-10-13T07:28:43;98050.78;;;12.29;63.79
22181;BME280;11256;50.830;12.834;2022-10-13T07:33:46;98041.63;;;12.53;63.90
22181;BME280;11256;50.830;12.834;2022-10-13T07:38:50;98044.84;;;12.89;64.62
22181;BME280;11256;50.830;12.834;2022-10-13T07:43:54;98044.13;;;14.01;64.48
22181;BME280;11256;50.830;12.834;2022-10-13T07:48:54;98040.25;;;15.53;61.79
22181;BME280;11256;50.830;12.834;2022-10-13T07:53:55;98039.00;;;16.71;59.53
22181;BME280;11256;50.830;12.834;2022-10-13T07:58:55;98038.81;;;17.81;58.30
22181;BME280;11256;50.830;12.834;2022-10-13T08:03:56;98023.28;;;18.83;57.33
22181;BME280;11256;50.830;12.834;2022-10-13T08:08:56;98019.06;;;19.03;56.06
22181;BME280;11256;50.830;12.834;2022-10-13T08:13:57;98002.53;;;19.20;55.96
22181;BME280;11256;50.830;12.834;2022-10-13T08:19:00;98013.22;;;19.88;55.27
22181;BME280;11256;50.830;12.834;2022-10-13T08:24:01;98005.66;;;20.14;54.50
22181;BME280;11256;50.830;12.834;2022-10-13T08:29:01;98004.25;;;20.90;53.44
22181;BME280;11256;50.830;12.834;2022-10-13T08:34:02;98011.38;;;21.23;52.98
22181;BME280;11256;50.830;12.834;2022-10-13T08:39:03;98005.38;;;22.02;51.61
22181;BME280;11256;50.830;12.834;2022-10-13T08:49:30;97995.94;;;22.03;50.92
22181;BME280;11256;50.830;12.834;2022-10-13T08:54:32;97985.81;;;21.95;50.74
22181;BME280;11256;50.830;12.834;2022-10-13T08:59:32;97982.00;;;21.39;50.64
22181;BME280;11256;50.830;12.834;2022-10-13T09:04:34;98000.13;;;20.96;50.94
22181;BME280;11256;50.830;12.834;2022-10-13T09:09:36;97993.25;;;21.02;50.81
22181;BME280;11256;50.830;12.834;2022-10-13T09:14:38;97976.88;;;20.85;51.68
22181;BME280;11256;50.830;12.834;2022-10-13T09:19:39;97981.91;;;20.71;52.13
22181;BME280;11256;50.830;12.834;2022-10-13T09:24:40;97971.44;;;20.44;51.94
22181;BME280;11256;50.830;12.834;2022-10-13T09:29:41;97985.22;;;20.23;52.36
22181;BME280;11256;50.830;12.834;2022-10-13T09:34:43;97977.88;;;20.27;51.89
22181;BME280;11256;50.830;12.834;2022-10-13T09:39:44;97969.44;;;20.12;52.29
22181;BME280;11256;50.830;12.834;2022-10-13T09:44:44;97968.75;;;20.15;52.46
22181;BME280;11256;50.830;12.834;2022-10-13T09:49:45;97974.25;;;20.15;52.51
22181;BME280;11256;50.830;12.834;2022-10-13T09:54:58;97950.34;;;20.27;52.46
22181;BME280;11256;50.830;12.834;2022-10-13T10:00:19;97971.59;;;20.27;53.01
22181;BME280;11256;50.830;12.834;2022-10-13T10:05:27;97979.22;;;20.21;52.71
22181;BME280;11256;50.830;12.834;2022-10-13T10:10:35;97959.38;;;20.16;53.22
22181;BME280;11256;50.830;12.834;2022-10-13T10:15:57;97951.31;;;20.11;53.13
22181;BME280;11256;50.830;12.834;2022-10-13T10:26:54;97932.59;;;19.96;53.24
22181;BME280;11256;50.830;12.834;2022-10-13T10:32:03;97925.28;;;20.00;53.59
22181;BME280;11256;50.830;12.834;2022-10-13T10:47:25;97923.84;;;20.23;53.01
22181;BME280;11256;50.830;12.834;2022-10-13T10:52:36;97912.41;;;20.12;53.37
22181;BME280;11256;50.830;12.834;2022-10-13T11:03:21;97900.53;;;20.00;53.51
22181;BME280;11256;50.830;12.834;2022-10-13T11:08:44;97892.66;;;19.90;53.61
22181;BME280;11256;50.830;12.834;2022-10-13T11:14:08;97892.72;;;20.02;54.20
22181;BME280;11256;50.830;12.834;2022-10-13T11:19:26;97895.03;;;20.00;53.95
22181;BME280;11256;50.830;12.834;2022-10-13T11:34:58;97872.31;;;20.03;53.64
22181;BME280;11256;50.830;12.834;2022-10-13T11:40:15;97874.28;;;20.02;53.47
22181;BME280;11256;50.830;12.834;2022-10-13T11:50:49;97877.56;;;19.96;53.63
22181;BME280;11256;50.830;12.834;2022-10-13T11:55:56;97883.06;;;19.96;53.42
22181;BME280;11256;50.830;12.834;2022-10-13T12:01:05;97873.22;;;19.95;53.54
22181;BME280;11256;50.830;12.834;2022-10-13T12:06:22;97864.63;;;19.96;53.79
22181;BME280;11256;50.830;12.834;2022-10-13T12:11:29;97871.41;;;19.99;53.55
22181;BME280;11256;50.830;12.834;2022-10-13T12:16:30;97858.97;;;19.93;53.78
22181;BME280;11256;50.830;12.834;2022-10-13T12:21:31;97855.56;;;19.96;53.82
22181;BME280;11256;50.830;12.834;2022-10-13T12:26:31;97860.81;;;19.89;53.80
22181;BME280;11256;50.830;12.834;2022-10-13T12:31:40;97862.53;;;19.73;53.93
22181;BME280;11256;50.830;12.834;2022-10-13T12:36:44;97858.38;;;19.67;53.83
22181;BME280;11256;50.830;12.834;2022-10-13T12:41:46;97857.00;;;19.52;53.91
22181;BME280;11256;50.830;12.834;2022-10-13T12:46:58;97855.41;;;19.51;54.35
22181;BME280;11256;50.830;12.834;2022-10-13T12:52:11;97849.13;;;19.51;54.22
22181;BME280;11256;50.830;12.834;2022-10-13T13:02:23;97840.66;;;19.56;54.90
22181;BME280;11256;50.830;12.834;2022-10-13T13:07:33;97819.06;;;19.66;55.11
22181;BME280;11256;50.830;12.834;2022-10-13T13:12:35;97824.94;;;19.77;54.74
22181;BME280;11256;50.830;12.834;2022-10-13T13:17:38;97812.16;;;19.81;54.60
22181;BME280;11256;50.830;12.834;2022-10-13T13:22:38;97819.75;;;19.84;54.36
22181;BME280;11256;50.830;12.834;2022-10-13T13:27:39;97814.91;;;19.81;54.50
22181;BME280;11256;50.830;12.834;2022-10-13T13:32:40;97823.63;;;19.83;54.27
22181;BME280;11256;50.830;12.834;2022-10-13T13:37:44;97823.75;;;19.86;54.54
22181;BME280;11256;50.830;12.834;2022-10-13T13:42:47;97821.00;;;19.86;54.36
22181;BME280;11256;50.830;12.834;2022-10-13T13:47:47;97821.75;;;19.75;54.48
22181;BME280;11256;50.830;12.834;2022-10-13T13:52:47;97818.13;;;19.83;54.53
22181;BME280;11256;50.830;12.834;2022-10-13T13:57:48;97810.28;;;19.73;54.65
22181;BME280;11256;50.830;12.834;2022-10-13T14:02:49;97801.91;;;19.69;54.66
22181;BME280;11256;50.830;12.834;2022-10-13T14:07:52;97801.28;;;19.64;54.64
22181;BME280;11256;50.830;12.834;2022-10-13T14:12:53;97803.09;;;19.60;54.74
22181;BME280;11256;50.830;12.834;2022-10-13T14:17:53;97790.22;;;19.52;54.76
22181;BME280;11256;50.830;12.834;2022-10-13T14:22:53;97787.41;;;19.60;54.63
22181;BME280;11256;50.830;12.834;2022-10-13T14:27:54;97774.53;;;19.52;54.77
22181;BME280;11256;50.830;12.834;2022-10-13T14:32:54;97770.22;;;19.43;55.02
22181;BME280;11256;50.830;12.834;2022-10-13T14:37:57;97777.91;;;19.37;55.06
22181;BME280;11256;50.830;12.834;2022-10-13T14:42:57;97772.78;;;19.27;55.02
22181;BME280;11256;50.830;12.834;2022-10-13T14:47:57;97773.56;;;19.28;55.09
22181;BME280;11256;50.830;12.834;2022-10-13T14:52:58;97772.66;;;19.24;55.39
22181;BME280;11256;50.830;12.834;2022-10-13T14:58:01;97762.97;;;19.18;55.45
22181;BME280;11256;50.830;12.834;2022-10-13T15:03:02;97758.41;;;19.22;55.38
22181;BME280;11256;50.830;12.834;2022-10-13T15:08:03;97770.44;;;19.09;55.52
22181;BME280;11256;50.830;12.834;2022-10-13T15:13:03;97775.69;;;19.02;55.64
22181;BME280;11256;50.830;12.834;2022-10-13T15:18:04;97781.53;;;18.92;55.93
22181;BME280;11256;50.830;12.834;2022-10-13T15:23:04;97772.22;;;18.84;56.16
22181;BME280;11256;50.830;12.834;2022-10-13T15:28:05;97754.31;;;18.78;56.05
22181;BME280;11256;50.830;12.834;2022-10-13T15:33:06;97774.31;;;18.79;56.08
22181;BME280;11256;50.830;12.834;2022-10-13T15:38:06;97763.84;;;18.81;56.21
22181;BME280;11256;50.830;12.834;2022-10-13T15:43:07;97759.66;;;18.75;56.22
22181;BME280;11256;50.830;12.834;2022-10-13T15:48:09;97766.19;;;18.62;56.34
22181;BME280;11256;50.830;12.834;2022-10-13T15:53:10;97765.25;;;18.58;56.33
22181;BME280;11256;50.830;12.834;2022-10-13T15:58:12;97746.84;;;18.50;56.30
22181;BME280;11256;50.830;12.834;2022-10-13T16:03:16;97753.84;;;18.39;56.43
22181;BME280;11256;50.830;12.834;2022-10-13T16:08:17;97758.72;;;18.33;56.28
22181;BME280;11256;50.830;12.834;2022-10-13T16:13:17;97759.53;;;18.17;56.46
22181;BME280;11256;50.830;12.834;2022-10-13T16:18:18;97752.94;;;18.09;56.31
22181;BME280;11256;50.830;12.834;2022-10-13T16:23:18;97756.38;;;17.98;56.31
22181;BME280;11256;50.830;12.834;2022-10-13T16:28:18;97761.06;;;17.89;56.39
22181;BME280;11256;50.830;12.834;2022-10-13T16:33:19;97759.94;;;17.81;56.51
22181;BME280;11256;50.830;12.834;2022-10-13T16:38:19;97762.06;;;17.67;56.11
22181;BME280;11256;50.830;12.834;2022-10-13T16:43:20;97779.00;;;17.61;56.49
22181;BME280;11256;50.830;12.834;2022-10-13T16:48:28;97778.50;;;17.50;56.50
22181;BME280;11256;50.830;12.834;2022-10-13T16:53:28;97786.72;;;17.42;56.49
22181;BME280;11256;50.830;12.834;2022-10-13T16:58:29;97794.91;;;17.33;56.56
22181;BME280;11256;50.830;12.834;2022-10-13T17:03:34;97784.75;;;17.25;56.71
22181;BME280;11256;50.830;12.834;2022-10-13T17:08:35;97798.28;;;17.22;56.99
22181;BME280;11256;50.830;12.834;2022-10-13T17:13:37;97792.81;;;17.13;57.11
22181;BME280;11256;50.830;12.834;2022-10-13T17:18:38;97800.69;;;17.15;57.07
22181;BME280;11256;50.830;12.834;2022-10-13T17:23:39;97803.75;;;17.05;56.96
22181;BME280;11256;50.830;12.834;2022-10-13T17:28:40;97802.59;;;16.97;57.15
22181;BME280;11256;50.830;12.834;2022-10-13T17:33:41;97810.94;;;16.92;57.41
22181;BME280;11256;50.830;12.834;2022-10-13T17:38:42;97801.44;;;16.90;57.37
22181;BME280;11256;50.830;12.834;2022-10-13T17:43:43;97807.06;;;16.85;57.58
22181;BME280;11256;50.830;12.834;2022-10-13T17:48:44;97811.06;;;16.79;57.71
22181;BME280;11256;50.830;12.834;2022-10-13T17:53:44;97797.53;;;16.74;57.96
22181;BME280;11256;50.830;12.834;2022-10-13T17:58:48;97791.06;;;16.70;57.83
22181;BME280;11256;50.830;12.834;2022-10-13T18:03:56;97783.00;;;16.65;57.72
22181;BME280;11256;50.830;12.834;2022-10-13T18:09:00;97782.00;;;16.61;57.63
22181;BME280;11256;50.830;12.834;2022-10-13T18:14:00;97773.16;;;16.55;57.73
22181;BME280;11256;50.830;12.834;2022-10-13T18:19:01;97768.94;;;16.49;57.78
22181;BME280;11256;50.830;12.834;2022-10-13T18:24:02;97783.59;;;16.45;57.84
22181;BME280;11256;50.830;12.834;2022-10-13T18:29:04;97780.34;;;16.43;58.12
22181;BME280;11256;50.830;12.834;2022-10-13T18:34:07;97775.63;;;16.35;57.93
22181;BME280;11256;50.830;12.834;2022-10-13T18:39:14;97768.03;;;16.32;58.00
22181;BME280;11256;50.830;12.834;2022-10-13T18:44:18;97746.28;;;16.27;57.81
22181;BME280;11256;50.830;12.834;2022-10-13T18:49:19;97753.00;;;16.21;58.68
22181;BME280;11256;50.830;12.834;2022-10-13T18:54:22;97746.06;;;16.15;58.47
22181;BME280;11256;50.830;12.834;2022-10-13T18:59:22;97749.13;;;16.13;58.60
22181;BME280;11256;50.830;12.834;2022-10-13T19:04:23;97748.28;;;16.04;58.46
22181;BME280;11256;50.830;12.834;2022-10-13T19:09:25;97747.59;;;15.99;58.59
22181;BME280;11256;50.830;12.834;2022-10-13T19:14:26;97763.50;;;15.97;58.60
22181;BME280;11256;50.830;12.834;2022-10-13T19:19:26;97775.56;;;15.96;58.74
22181;BME280;11256;50.830;12.834;2022-10-13T19:24:28;97771.97;;;15.87;58.71
22181;BME280;11256;50.830;12.834;2022-10-13T19:29:29;97773.22;;;15.81;58.82
22181;BME280;11256;50.830;12.834;2022-10-13T19:34:29;97757.88;;;15.71;58.85
22181;BME280;11256;50.830;12.834;2022-10-13T19:39:30;97763.53;;;15.75;58.96
22181;BME280;11256;50.830;12.834;2022-10-13T19:44:30;97749.19;;;15.69;59.10
22181;BME280;11256;50.830;12.834;2022-10-13T19:49:30;97759.31;;;15.69;58.83
22181;BME280;11256;50.830;12.834;2022-10-13T19:54:31;97762.97;;;15.64;59.10
22181;BME280;11256;50.830;12.834;2022-10-13T19:59:35;97768.44;;;15.64;59.15
22181;BME280;11256;50.830;12.834;2022-10-13T20:04:36;97754.88;;;15.59;59.11
22181;BME280;11256;50.830;12.834;2022-10-13T20:09:36;97771.47;;;15.63;59.48
22181;BME280;11256;50.830;12.834;2022-10-13T20:14:36;97754.72;;;15.56;59.66
22181;BME280;11256;50.830;12.834;2022-10-13T20:19:37;97767.25;;;15.57;59.50
22181;BME280;11256;50.830;12.834;2022-10-13T20:24:37;97765.63;;;15.56;59.56
22181;BME280;11256;50.830;12.834;2022-10-13T20:29:37;97760.81;;;15.53;59.63
22181;BME280;11256;50.830;12.834;2022-10-13T20:34:38;97757.38;;;15.47;59.60
22181;BME280;11256;50.830;12.834;2022-10-13T20:39:38;97739.97;;;15.43;59.85
22181;BME280;11256;50.830;12.834;2022-10-13T20:44:39;97757.38;;;15.47;59.71
22181;BME280;11256;50.830;12.834;2022-10-13T20:49:39;97745.56;;;15.38;60.02
22181;BME280;11256;50.830;12.834;2022-10-13T20:54:39;97739.00;;;15.39;60.07
22181;BME280;11256;50.830;12.834;2022-10-13T20:59:40;97744.78;;;15.38;60.25
22181;BME280;11256;50.830;12.834;2022-10-13T21:04:40;97746.19;;;15.35;60.11
22181;BME280;11256;50.830;12.834;2022-10-13T21:09:40;97736.19;;;15.31;60.29
22181;BME280;11256;50.830;12.834;2022-10-13T21:14:41;97720.66;;;15.18;60.21
22181;BME280;11256;50.830;12.834;2022-10-13T21:19:41;97694.22;;;15.05;60.84
22181;BME280;11256;50.830;12.834;2022-10-13T21:24:41;97721.16;;;15.20;60.62
22181;BME280;11256;50.830;12.834;2022-10-13T21:29:42;97723.38;;;15.18;60.55
22181;BME280;11256;50.830;12.834;2022-10-13T21:34:42;97731.75;;;15.21;60.87
22181;BME280;11256;50.830;12.834;2022-10-13T21:39:42;97715.34;;;14.99;62.32
22181;BME280;11256;50.830;12.834;2022-10-13T21:44:43;97727.16;;;15.08;61.54
22181;BME280;11256;50.830;12.834;2022-10-13T21:49:43;97720.09;;;15.07;61.65
22181;BME280;11256;50.830;12.834;2022-10-13T21:54:43;97714.56;;;14.99;61.51
22181;BME280;11256;50.830;12.834;2022-10-13T21:59:44;97726.25;;;14.99;61.34
22181;BME280;11256;50.830;12.834;2022-10-13T22:04:44;97714.16;;;14.92;61.62
22181;BME280;11256;50.830;12.834;2022-10-13T22:09:45;97716.88;;;14.92;61.28
22181;BME280;11256;50.830;12.834;2022-10-13T22:14:45;97719.59;;;14.92;61.73
22181;BME280;11256;50.830;12.834;2022-10-13T22:19:45;97733.88;;;14.89;61.71
22181;BME280;11256;50.830;12.834;2022-10-13T22:24:46;97726.81;;;14.88;61.35
22181;BME280;11256;50.830;12.834;2022-10-13T22:29:46;97722.78;;;14.85;61.64
22181;BME280;11256;50.830;12.834;2022-10-13T22:34:46;97722.59;;;14.82;61.75
22181;BME280;11256;50.830;12.834;2022-10-13T22:39:47;97728.81;;;14.82;61.80
22181;BME280;11256;50.830;12.834;2022-10-13T22:44:47;97717.22;;;14.77;62.10
22181;BME280;11256;50.830;12.834;2022-10-13T22:49:47;97725.41;;;14.77;62.05
22181;BME280;11256;50.830;12.834;2022-10-13T22:54:50;97722.16;;;14.75;62.12
22181;BME280;11256;50.830;12.834;2022-10-13T22:59:50;97716.53;;;14.71;62.08
22181;BME280;11256;50.830;12.834;2022-10-13T23:04:51;97688.41;;;14.49;62.18
22181;BME280;11256;50.830;12.834;2022-10-13T23:09:51;97704.63;;;14.54;62.21
22181;BME280;11256;50.830;12.834;2022-10-13T23:14:52;97703.44;;;14.46;62.32
22181;BME280;11256;50.830;12.834;2022-10-13T23:19:52;97715.97;;;14.47;62.67
22181;BME280;11256;50.830;12.834;2022-10-13T23:24:52;97712.50;;;14.42;62.41
22181;BME280;11256;50.830;12.834;2022-10-13T23:29:53;97706.88;;;14.38;62.65
22181;BME280;11256;50.830;12.834;2022-10-13T23:34:58;97698.78;;;14.33;62.93
22181;BME280;11256;50.830;12.834;2022-10-13T23:40:05;97695.38;;;14.28;62.87
22181;BME280;11256;50.830;12.834;2022-10-13T23:45:06;97693.53;;;14.23;63.29
22181;BME280;11256;50.830;12.834;2022-10-13T23:50:07;97698.50;;;14.21;63.28
22181;BME280;11256;50.830;12.834;2022-10-13T23:55:08;97686.44;;;14.09;63.06
